Sea Otter — WDH4842 — position and weather

sailwx.info

Track history (hours):
 
Tides and Currents Weather Stations Pressure Air Temp Water Temp Dewpoint Dewpoint Depression Visibility Wind Speed Wind Dir Waves Ship Positions

Sea Otter

Owner: GARBER BROTHERS INC, MORGAN CITY, LA. More information available from US FCC via Universal Licensing System and Coast Guard Vessel Documentation Center.

Last reported at 2017-Dec-13 19:28 UTC. Time now 2017-Dec-17 23:17 UTC.
Position N 29°33' W 090°41'.

Length 21 m.

Type: Other ship. MMSI: 367621940.

Date/timePositionNaut miles runAvg speedWind from/ knotsBaromVisibWave heightAir tempDewpointWater temp
2017-Dec-13 19:28N 29°33' W 090°41'0 0.0
2017-Dec-13 19:00N 29°33' W 090°41'0 0.0
2017-Dec-13 18:30N 29°33' W 090°41'0 0.0
2017-Dec-13 18:00N 29°33' W 090°41'0 0.0
2017-Dec-13 17:30N 29°33' W 090°41'0 0.0
2017-Dec-13 17:00N 29°33' W 090°41'0 0.0
2017-Dec-13 16:30N 29°33' W 090°41'0 0.0
2017-Dec-13 16:00N 29°33' W 090°41'0 0.0
2017-Dec-13 15:30N 29°33' W 090°41'0 0.0
2017-Dec-13 15:00N 29°33' W 090°41'0 0.0
2017-Dec-13 14:30N 29°33' W 090°41'0 0.0
2017-Dec-13 14:00N 29°33' W 090°41'0 0.0
2017-Dec-13 13:30N 29°33' W 090°41'0 0.0
2017-Dec-13 13:00N 29°33' W 090°41'0 0.0
2017-Dec-13 12:30N 29°33' W 090°41'0 0.0
2017-Dec-13 12:00N 29°33' W 090°41'0 0.0
2017-Dec-13 11:30N 29°33' W 090°41'0 0.0
2017-Dec-13 11:00N 29°33' W 090°41'0 0.0
2017-Dec-13 10:30N 29°33' W 090°41'0 0.0
2017-Dec-13 10:00N 29°33' W 090°41'0 0.0
2017-Dec-13 09:30N 29°33' W 090°41'0 0.0
2017-Dec-13 09:00N 29°33' W 090°41'0 0.0
2017-Dec-13 08:30N 29°33' W 090°41'0 0.0
2017-Dec-13 08:00N 29°33' W 090°41'0 0.0
2017-Dec-13 07:30N 29°33' W 090°41'0 0.0
2017-Dec-13 07:00N 29°33' W 090°41'0 0.0
2017-Dec-13 06:30N 29°33' W 090°41'0 0.0
2017-Dec-13 06:00N 29°33' W 090°41'0 0.0
2017-Dec-13 05:30N 29°33' W 090°41'0 0.0
2017-Dec-13 05:00N 29°33' W 090°41'0 0.0
2017-Dec-13 04:30N 29°33' W 090°41'0 0.0
2017-Dec-13 04:00N 29°33' W 090°41'0 0.0
2017-Dec-13 03:30N 29°33' W 090°41'0 0.0
2017-Dec-13 03:00N 29°33' W 090°41'0 0.0
2017-Dec-13 02:30N 29°33' W 090°41'0 0.0
2017-Dec-13 02:00N 29°33' W 090°41'0 0.0
2017-Dec-13 01:30N 29°33' W 090°41'0 0.0
2017-Dec-13 01:00N 29°33' W 090°41'0 0.0
2017-Dec-13 00:30N 29°33' W 090°41'0 0.0
2017-Dec-13 00:00N 29°33' W 090°41'0 0.0
2017-Dec-12 23:30N 29°33' W 090°41'0 0.0
2017-Dec-12 23:00N 29°33' W 090°41'0 0.2
2017-Dec-12 22:30N 29°33' W 090°41'1 1.6
2017-Dec-12 22:00N 29°33' W 090°42'0 0.1
2017-Dec-12 21:30N 29°33' W 090°42'0 0.0
2017-Dec-12 21:00N 29°33' W 090°42'0 0.0
2017-Dec-12 20:30N 29°33' W 090°42'0 0.0
2017-Dec-12 20:00N 29°33' W 090°42'0 0.0
2017-Dec-12 19:30N 29°33' W 090°42'0 0.0
2017-Dec-12 19:00N 29°33' W 090°42'0 0.0
2017-Dec-12 18:31N 29°33' W 090°42'0 0.0
2017-Dec-12 18:00N 29°33' W 090°42'0 0.0
2017-Dec-12 17:30N 29°33' W 090°42'0 0.0
2017-Dec-12 17:00N 29°33' W 090°42'0 0.0
2017-Dec-12 16:30N 29°33' W 090°42'0 0.0
2017-Dec-12 16:00N 29°33' W 090°42'0 0.0
2017-Dec-12 15:30N 29°33' W 090°42'0 0.0
2017-Dec-12 15:00N 29°33' W 090°42'0 0.0
2017-Dec-12 14:30N 29°33' W 090°42'0 0.0
2017-Dec-12 14:00N 29°33' W 090°42'0 0.1
2017-Dec-12 13:30N 29°33' W 090°42'0 0.0
2017-Dec-12 13:00N 29°33' W 090°42'0 0.0
2017-Dec-12 12:30N 29°33' W 090°42'1 0.1
2017-Dec-11 20:31N 29°33' W 090°41'0 0.0
2017-Dec-11 20:30N 29°33' W 090°41'2 3.9
2017-Dec-11 20:00N 29°34' W 090°43'2 4.1
2017-Dec-11 19:30N 29°36' W 090°43'1 2.7
2017-Dec-11 19:00N 29°36' W 090°41'1 0.9
2017-Dec-11 17:45N 29°36' W 090°40'0 0.5
2017-Dec-11 17:30N 29°36' W 090°40'0 0.0
2017-Dec-11 17:00N 29°36' W 090°40'0 0.4
2017-Dec-11 16:29N 29°36' W 090°40'0 0.0
2017-Dec-11 16:00N 29°36' W 090°40'0 0.0
2017-Dec-11 15:30N 29°36' W 090°40'0 0.0
2017-Dec-11 15:00N 29°36' W 090°40'0 0.0
2017-Dec-11 14:28N 29°36' W 090°40'0 0.0
2017-Dec-11 14:00N 29°36' W 090°40'0 0.2
2017-Dec-11 13:30N 29°36' W 090°40'3 6.3
2017-Dec-11 13:00N 29°35' W 090°36'3 6.7
2017-Dec-11 12:30N 29°34' W 090°33'4 7.1
2017-Dec-11 12:00N 29°34' W 090°28'4 7.2
2017-Dec-11 11:30N 29°33' W 090°24'5 6.4
2017-Dec-11 10:45N 29°37' W 090°21'13 1.1
2017-Dec-10 23:17N 29°35' W 090°36'4 4.2
2017-Dec-10 22:23N 29°36' W 090°40'0 0.1
2017-Dec-10 22:00N 29°36' W 090°40'0 0.0
2017-Dec-10 19:38N 29°36' W 090°40'0 0.5
2017-Dec-10 19:16N 29°36' W 090°40'0 0.1
2017-Dec-10 18:33N 29°36' W 090°40'0 1.8
2017-Dec-10 18:30N 29°36' W 090°40'0 0.2
2017-Dec-10 18:00N 29°36' W 090°40'0 0.0
2017-Dec-10 17:30N 29°36' W 090°40'0 0.0
2017-Dec-10 17:00N 29°36' W 090°40'0 0.0
2017-Dec-10 16:30N 29°36' W 090°40'0 0.0
2017-Dec-10 16:00N 29°36' W 090°40'0 0.0
2017-Dec-10 15:30N 29°36' W 090°40'0 0.0
2017-Dec-10 15:00N 29°36' W 090°40'0 0.0
2017-Dec-10 14:30N 29°36' W 090°40'0 0.0
2017-Dec-10 14:00N 29°36' W 090°40'0 0.0
2017-Dec-10 13:30N 29°36' W 090°40'0 0.0
2017-Dec-10 13:00N 29°36' W 090°40'0 0.0
2017-Dec-10 12:30N 29°36' W 090°40'0 0.0
2017-Dec-10 12:00N 29°36' W 090°40'0 0.0
2017-Dec-10 11:30N 29°36' W 090°40'0 0.0
2017-Dec-10 11:00N 29°36' W 090°40'0 0.0
2017-Dec-10 10:30N 29°36' W 090°40'0 0.0
2017-Dec-10 10:00N 29°36' W 090°40'0 0.0
2017-Dec-10 09:30N 29°36' W 090°40'0 0.0
2017-Dec-10 09:00N 29°36' W 090°40'0 0.0
2017-Dec-10 08:30N 29°36' W 090°40'0 0.0
2017-Dec-10 08:00N 29°36' W 090°40'0 0.0
2017-Dec-10 07:30N 29°36' W 090°40'0 0.0
2017-Dec-10 07:00N 29°36' W 090°40'0 0.0
2017-Dec-10 06:30N 29°36' W 090°40'0 0.0
2017-Dec-10 06:00N 29°36' W 090°40'0 0.0
2017-Dec-10 05:30N 29°36' W 090°40'0 0.0
2017-Dec-10 05:00N 29°36' W 090°40'0 0.0
2017-Dec-10 04:30N 29°36' W 090°40'0 0.0
2017-Dec-10 04:00N 29°36' W 090°40'0 0.0
2017-Dec-10 03:30N 29°36' W 090°40'0 0.0
2017-Dec-10 03:00N 29°36' W 090°40'0 0.0
2017-Dec-10 02:30N 29°36' W 090°40'0 0.0
2017-Dec-10 02:00N 29°36' W 090°40'0 0.0
2017-Dec-10 01:30N 29°36' W 090°40'0 0.0
2017-Dec-10 01:00N 29°36' W 090°40'0 0.0
2017-Dec-10 00:30N 29°36' W 090°40'0 0.0
2017-Dec-10 00:00N 29°36' W 090°40'0 0.0
2017-Dec-09 23:30N 29°36' W 090°40'0 0.0
2017-Dec-09 23:00N 29°36' W 090°40'0 0.0
2017-Dec-09 22:29N 29°36' W 090°40'0 0.0
2017-Dec-09 21:59N 29°36' W 090°40'0 0.0
2017-Dec-09 21:28N 29°36' W 090°40'0 0.0
2017-Dec-09 20:59N 29°36' W 090°40'0 0.0
2017-Dec-09 20:27N 29°36' W 090°40'0 0.1
2017-Dec-09 19:13N 29°36' W 090°40'0 0.0
2017-Dec-09 18:59N 29°36' W 090°40'0 0.3
2017-Dec-09 18:30N 29°36' W 090°40'0 0.0
2017-Dec-09 18:00N 29°36' W 090°40'0 0.0
2017-Dec-09 17:29N 29°36' W 090°40'0 0.0
2017-Dec-09 17:00N 29°36' W 090°40'0 0.0
2017-Dec-09 16:30N 29°36' W 090°40'0 0.0
2017-Dec-09 16:00N 29°36' W 090°40'0 0.0
2017-Dec-09 15:29N 29°36' W 090°40'0 0.0
2017-Dec-09 15:00N 29°36' W 090°40'0 0.0
2017-Dec-09 14:30N 29°36' W 090°40'0 0.0
2017-Dec-09 14:00N 29°36' W 090°40'0 0.0
2017-Dec-09 07:35N 29°36' W 090°40'0 0.0
2017-Dec-09 03:28N 29°36' W 090°40'0 0.0
2017-Dec-09 02:17N 29°36' W 090°40'1 0.1
2017-Dec-08 17:43N 29°36' W 090°41'1 5.9
2017-Dec-08 17:30N 29°37' W 090°42'3 5.2
2017-Dec-08 17:00N 29°34' W 090°43'3 6.0
2017-Dec-08 16:31N 29°32' W 090°46'3 0.4
2017-Dec-08 09:23N 29°32' W 090°49'2 4.3
2017-Dec-08 08:59N 29°32' W 090°47'2 3.8
2017-Dec-08 08:30N 29°33' W 090°45'2 3.8
2017-Dec-08 08:00N 29°34' W 090°43'2 3.6
2017-Dec-08 07:30N 29°36' W 090°43'1 2.7
2017-Dec-08 07:00N 29°37' W 090°41'2 4.3
2017-Dec-08 06:30N 29°36' W 090°39'2 4.3
2017-Dec-08 06:00N 29°35' W 090°37'2 4.3
2017-Dec-08 05:30N 29°34' W 090°35'2 4.3
2017-Dec-08 05:00N 29°34' W 090°32'2 4.4
2017-Dec-08 04:30N 29°34' W 090°30'  
Track history (hours):
 
Tides and Currents Weather Stations Pressure Air Temp Water Temp Dewpoint Dewpoint Depression Visibility Wind Speed Wind Dir Waves Ship Positions

Sea Otter

Owner: GARBER BROTHERS INC, MORGAN CITY, LA. More information available from US FCC via Universal Licensing System and Coast Guard Vessel Documentation Center.

Last reported at 2017-Dec-13 19:28 UTC. Time now 2017-Dec-17 23:17 UTC.
Position N 29°33' W 090°41'.

Length 21 m.

Type: Other ship. MMSI: 367621940.

Date/timePositionNaut miles runAvg speedWind from/ knotsBaromVisibWave heightAir tempDewpointWater temp
2017-Dec-13 19:28N 29°33' W 090°41'0 0.0
2017-Dec-13 19:00N 29°33' W 090°41'0 0.0
2017-Dec-13 18:30N 29°33' W 090°41'0 0.0
2017-Dec-13 18:00N 29°33' W 090°41'0 0.0
2017-Dec-13 17:30N 29°33' W 090°41'0 0.0
2017-Dec-13 17:00N 29°33' W 090°41'0 0.0
2017-Dec-13 16:30N 29°33' W 090°41'0 0.0
2017-Dec-13 16:00N 29°33' W 090°41'0 0.0
2017-Dec-13 15:30N 29°33' W 090°41'0 0.0
2017-Dec-13 15:00N 29°33' W 090°41'0 0.0
2017-Dec-13 14:30N 29°33' W 090°41'0 0.0
2017-Dec-13 14:00N 29°33' W 090°41'0 0.0
2017-Dec-13 13:30N 29°33' W 090°41'0 0.0
2017-Dec-13 13:00N 29°33' W 090°41'0 0.0
2017-Dec-13 12:30N 29°33' W 090°41'0 0.0
2017-Dec-13 12:00N 29°33' W 090°41'0 0.0
2017-Dec-13 11:30N 29°33' W 090°41'0 0.0
2017-Dec-13 11:00N 29°33' W 090°41'0 0.0
2017-Dec-13 10:30N 29°33' W 090°41'0 0.0
2017-Dec-13 10:00N 29°33' W 090°41'0 0.0
2017-Dec-13 09:30N 29°33' W 090°41'0 0.0
2017-Dec-13 09:00N 29°33' W 090°41'0 0.0
2017-Dec-13 08:30N 29°33' W 090°41'0 0.0
2017-Dec-13 08:00N 29°33' W 090°41'0 0.0
2017-Dec-13 07:30N 29°33' W 090°41'0 0.0
2017-Dec-13 07:00N 29°33' W 090°41'0 0.0
2017-Dec-13 06:30N 29°33' W 090°41'0 0.0
2017-Dec-13 06:00N 29°33' W 090°41'0 0.0
2017-Dec-13 05:30N 29°33' W 090°41'0 0.0
2017-Dec-13 05:00N 29°33' W 090°41'0 0.0
2017-Dec-13 04:30N 29°33' W 090°41'0 0.0
2017-Dec-13 04:00N 29°33' W 090°41'0 0.0
2017-Dec-13 03:30N 29°33' W 090°41'0 0.0
2017-Dec-13 03:00N 29°33' W 090°41'0 0.0
2017-Dec-13 02:30N 29°33' W 090°41'0 0.0
2017-Dec-13 02:00N 29°33' W 090°41'0 0.0
2017-Dec-13 01:30N 29°33' W 090°41'0 0.0
2017-Dec-13 01:00N 29°33' W 090°41'0 0.0
2017-Dec-13 00:30N 29°33' W 090°41'0 0.0
2017-Dec-13 00:00N 29°33' W 090°41'0 0.0
2017-Dec-12 23:30N 29°33' W 090°41'0 0.0
2017-Dec-12 23:00N 29°33' W 090°41'0 0.2
2017-Dec-12 22:30N 29°33' W 090°41'1 1.6
2017-Dec-12 22:00N 29°33' W 090°42'0 0.1
2017-Dec-12 21:30N 29°33' W 090°42'0 0.0
2017-Dec-12 21:00N 29°33' W 090°42'0 0.0
2017-Dec-12 20:30N 29°33' W 090°42'0 0.0
2017-Dec-12 20:00N 29°33' W 090°42'0 0.0
2017-Dec-12 19:30N 29°33' W 090°42'0 0.0
2017-Dec-12 19:00N 29°33' W 090°42'0 0.0
2017-Dec-12 18:31N 29°33' W 090°42'0 0.0
2017-Dec-12 18:00N 29°33' W 090°42'0 0.0
2017-Dec-12 17:30N 29°33' W 090°42'0 0.0
2017-Dec-12 17:00N 29°33' W 090°42'0 0.0
2017-Dec-12 16:30N 29°33' W 090°42'0 0.0
2017-Dec-12 16:00N 29°33' W 090°42'0 0.0
2017-Dec-12 15:30N 29°33' W 090°42'0 0.0
2017-Dec-12 15:00N 29°33' W 090°42'0 0.0
2017-Dec-12 14:30N 29°33' W 090°42'0 0.0
2017-Dec-12 14:00N 29°33' W 090°42'0 0.1
2017-Dec-12 13:30N 29°33' W 090°42'0 0.0
2017-Dec-12 13:00N 29°33' W 090°42'0 0.0
2017-Dec-12 12:30N 29°33' W 090°42'1 0.1
2017-Dec-11 20:31N 29°33' W 090°41'0 0.0
2017-Dec-11 20:30N 29°33' W 090°41'2 3.9
2017-Dec-11 20:00N 29°34' W 090°43'2 4.1
2017-Dec-11 19:30N 29°36' W 090°43'1 2.7
2017-Dec-11 19:00N 29°36' W 090°41'1 0.9
2017-Dec-11 17:45N 29°36' W 090°40'0 0.5
2017-Dec-11 17:30N 29°36' W 090°40'0 0.0
2017-Dec-11 17:00N 29°36' W 090°40'0 0.4
2017-Dec-11 16:29N 29°36' W 090°40'0 0.0
2017-Dec-11 16:00N 29°36' W 090°40'0 0.0
2017-Dec-11 15:30N 29°36' W 090°40'0 0.0
2017-Dec-11 15:00N 29°36' W 090°40'0 0.0
2017-Dec-11 14:28N 29°36' W 090°40'0 0.0
2017-Dec-11 14:00N 29°36' W 090°40'0 0.2
2017-Dec-11 13:30N 29°36' W 090°40'3 6.3
2017-Dec-11 13:00N 29°35' W 090°36'3 6.7
2017-Dec-11 12:30N 29°34' W 090°33'4 7.1
2017-Dec-11 12:00N 29°34' W 090°28'4 7.2
2017-Dec-11 11:30N 29°33' W 090°24'5 6.4
2017-Dec-11 10:45N 29°37' W 090°21'13 1.1
2017-Dec-10 23:17N 29°35' W 090°36'4 4.2
2017-Dec-10 22:23N 29°36' W 090°40'0 0.1
2017-Dec-10 22:00N 29°36' W 090°40'0 0.0
2017-Dec-10 19:38N 29°36' W 090°40'0 0.5
2017-Dec-10 19:16N 29°36' W 090°40'0 0.1
2017-Dec-10 18:33N 29°36' W 090°40'0 1.8
2017-Dec-10 18:30N 29°36' W 090°40'0 0.2
2017-Dec-10 18:00N 29°36' W 090°40'0 0.0
2017-Dec-10 17:30N 29°36' W 090°40'0 0.0
2017-Dec-10 17:00N 29°36' W 090°40'0 0.0
2017-Dec-10 16:30N 29°36' W 090°40'0 0.0
2017-Dec-10 16:00N 29°36' W 090°40'0 0.0
2017-Dec-10 15:30N 29°36' W 090°40'0 0.0
2017-Dec-10 15:00N 29°36' W 090°40'0 0.0
2017-Dec-10 14:30N 29°36' W 090°40'0 0.0
2017-Dec-10 14:00N 29°36' W 090°40'0 0.0
2017-Dec-10 13:30N 29°36' W 090°40'0 0.0
2017-Dec-10 13:00N 29°36' W 090°40'0 0.0
2017-Dec-10 12:30N 29°36' W 090°40'0 0.0
2017-Dec-10 12:00N 29°36' W 090°40'0 0.0
2017-Dec-10 11:30N 29°36' W 090°40'0 0.0
2017-Dec-10 11:00N 29°36' W 090°40'0 0.0
2017-Dec-10 10:30N 29°36' W 090°40'0 0.0
2017-Dec-10 10:00N 29°36' W 090°40'0 0.0
2017-Dec-10 09:30N 29°36' W 090°40'0 0.0
2017-Dec-10 09:00N 29°36' W 090°40'0 0.0
2017-Dec-10 08:30N 29°36' W 090°40'0 0.0
2017-Dec-10 08:00N 29°36' W 090°40'0 0.0
2017-Dec-10 07:30N 29°36' W 090°40'0 0.0
2017-Dec-10 07:00N 29°36' W 090°40'0 0.0
2017-Dec-10 06:30N 29°36' W 090°40'0 0.0
2017-Dec-10 06:00N 29°36' W 090°40'0 0.0
2017-Dec-10 05:30N 29°36' W 090°40'0 0.0
2017-Dec-10 05:00N 29°36' W 090°40'0 0.0
2017-Dec-10 04:30N 29°36' W 090°40'0 0.0
2017-Dec-10 04:00N 29°36' W 090°40'0 0.0
2017-Dec-10 03:30N 29°36' W 090°40'0 0.0
2017-Dec-10 03:00N 29°36' W 090°40'0 0.0
2017-Dec-10 02:30N 29°36' W 090°40'0 0.0
2017-Dec-10 02:00N 29°36' W 090°40'0 0.0
2017-Dec-10 01:30N 29°36' W 090°40'0 0.0
2017-Dec-10 01:00N 29°36' W 090°40'0 0.0
2017-Dec-10 00:30N 29°36' W 090°40'0 0.0
2017-Dec-10 00:00N 29°36' W 090°40'0 0.0
2017-Dec-09 23:30N 29°36' W 090°40'0 0.0
2017-Dec-09 23:00N 29°36' W 090°40'0 0.0
2017-Dec-09 22:29N 29°36' W 090°40'0 0.0
2017-Dec-09 21:59N 29°36' W 090°40'0 0.0
2017-Dec-09 21:28N 29°36' W 090°40'0 0.0
2017-Dec-09 20:59N 29°36' W 090°40'0 0.0
2017-Dec-09 20:27N 29°36' W 090°40'0 0.1
2017-Dec-09 19:13N 29°36' W 090°40'0 0.0
2017-Dec-09 18:59N 29°36' W 090°40'0 0.3
2017-Dec-09 18:30N 29°36' W 090°40'0 0.0
2017-Dec-09 18:00N 29°36' W 090°40'0 0.0
2017-Dec-09 17:29N 29°36' W 090°40'0 0.0
2017-Dec-09 17:00N 29°36' W 090°40'0 0.0
2017-Dec-09 16:30N 29°36' W 090°40'0 0.0
2017-Dec-09 16:00N 29°36' W 090°40'0 0.0
2017-Dec-09 15:29N 29°36' W 090°40'0 0.0
2017-Dec-09 15:00N 29°36' W 090°40'0 0.0
2017-Dec-09 14:30N 29°36' W 090°40'0 0.0
2017-Dec-09 14:00N 29°36' W 090°40'0 0.0
2017-Dec-09 07:35N 29°36' W 090°40'0 0.0
2017-Dec-09 03:28N 29°36' W 090°40'0 0.0
2017-Dec-09 02:17N 29°36' W 090°40'1 0.1
2017-Dec-08 17:43N 29°36' W 090°41'1 5.9
2017-Dec-08 17:30N 29°37' W 090°42'3 5.2
2017-Dec-08 17:00N 29°34' W 090°43'3 6.0
2017-Dec-08 16:31N 29°32' W 090°46'3 0.4
2017-Dec-08 09:23N 29°32' W 090°49'2 4.3
2017-Dec-08 08:59N 29°32' W 090°47'2 3.8
2017-Dec-08 08:30N 29°33' W 090°45'2 3.8
2017-Dec-08 08:00N 29°34' W 090°43'2 3.6
2017-Dec-08 07:30N 29°36' W 090°43'1 2.7
2017-Dec-08 07:00N 29°37' W 090°41'2 4.3
2017-Dec-08 06:30N 29°36' W 090°39'2 4.3
2017-Dec-08 06:00N 29°35' W 090°37'2 4.3
2017-Dec-08 05:30N 29°34' W 090°35'2 4.3
2017-Dec-08 05:00N 29°34' W 090°32'2 4.4
2017-Dec-08 04:30N 29°34' W 090°30'  

Dump ship's entire track history